Time;durP1;ratioP1;P1;durP2;ratioP2;P2;SDS_P1;SDS_P2;PMS_P1;PMS_P2;Temp;Humidity;BMP_temperature;BMP_pressure;BME280_temperature;BME280_humidity;BME280_pressure;Samples;Min_cycle;Max_cycle;Signal;HPM_P1;HPM_P2
2022/08/24 00:00:14;;;;;;;7.83;4.72;;;;;;;24.03;40.72;100600.38;1688406;85;21045;-61
2022/08/24 00:02:43;;;;;;;8.33;4.55;;;;;;;24.04;40.47;100597.86;1688470;85;21461;-62
2022/08/24 00:05:13;;;;;;;10.32;4.90;;;;;;;24.04;40.68;100602.06;1698642;83;21100;-63
2022/08/24 00:07:46;;;;;;;8.78;4.47;;;;;;;24.04;40.81;100607.66;1744188;82;21074;-62
2022/08/24 00:10:15;;;;;;;9.88;4.55;;;;;;;24.00;40.92;100610.75;1750628;81;21095;-62
2022/08/24 00:12:45;;;;;;;6.87;4.67;;;;;;;23.97;41.16;100607.11;1758526;81;21473;-61
2022/08/24 00:15:15;;;;;;;8.13;4.75;;;;;;;23.93;41.18;100619.44;1758735;81;21039;-61
2022/08/24 00:17:45;;;;;;;11.50;4.83;;;;;;;23.90;41.22;100614.95;1743983;81;21055;-63
2022/08/24 00:20:15;;;;;;;12.00;4.78;;;;;;;23.87;41.29;100613.56;1745670;82;21529;-62
2022/08/24 00:22:45;;;;;;;9.13;4.58;;;;;;;23.84;41.38;100618.32;1747049;81;21542;-62
2022/08/24 00:25:16;;;;;;;7.22;4.50;;;;;;;23.80;41.46;100622.80;1753015;81;21940;-63
2022/08/24 00:27:46;;;;;;;8.40;4.45;;;;;;;23.74;41.55;100621.68;1679064;85;20992;-63
2022/08/24 00:30:17;;;;;;;7.75;4.50;;;;;;;23.68;41.68;100628.67;1745908;82;21042;-64
2022/08/24 00:32:47;;;;;;;10.18;4.80;;;;;;;23.65;41.57;100622.23;1745562;82;21021;-62
2022/08/24 00:35:17;;;;;;;13.15;4.50;;;;;;;23.60;41.54;100626.43;1745884;82;21034;-61
2022/08/24 00:37:47;;;;;;;8.45;4.70;;;;;;;23.56;41.73;100627.27;1745658;82;21423;-63
2022/08/24 00:40:24;;;;;;;8.85;4.03;;;;;;;23.52;41.75;100625.55;1745506;82;21070;-63
2022/08/24 00:42:55;;;;;;;6.70;4.60;;;;;;;23.49;41.91;100630.86;1746781;81;21011;-61
2022/08/24 00:45:25;;;;;;;10.00;4.80;;;;;;;23.44;41.75;100633.09;1679017;85;21103;-63
2022/08/24 00:48:02;;;;;;;9.70;4.37;;;;;;;23.42;41.79;100632.53;1753721;81;21039;-63
2022/08/24 00:50:47;;;;;;;9.68;4.72;;;;;;;23.38;41.80;100629.97;1745609;82;21051;-62
2022/08/24 00:53:34;;;;;;;10.60;4.37;;;;;;;23.36;41.69;100628.02;1745786;82;21470;-63
2022/08/24 00:56:10;;;;;;;;;;;;;;;23.34;41.63;100626.89;1748211;82;21459;-62
2022/08/24 00:59:10;;;;;;;6.40;4.17;;;;;;;23.32;41.72;100625.49;1745486;82;20174;-63
2022/08/24 01:01:40;;;;;;;7.03;4.47;;;;;;;23.29;41.55;100626.88;1748187;81;21008;-62
2022/08/24 01:04:14;;;;;;;11.30;4.22;;;;;;;23.25;41.60;100631.34;1758457;81;21505;-62
2022/08/24 01:06:45;;;;;;;9.48;5.10;;;;;;;23.19;41.70;100635.25;1748722;81;21039;-63
2022/08/24 01:09:14;;;;;;;7.55;4.50;;;;;;;23.18;41.78;100637.77;1716180;83;21428;-63
2022/08/24 01:11:45;;;;;;;8.18;4.37;;;;;;;23.13;41.90;100633.55;1749003;81;21429;-62
2022/08/24 01:14:16;;;;;;;8.98;4.35;;;;;;;23.09;42.08;100630.47;1679076;85;21032;-63
2022/08/24 01:19:39;;;;;;;6.80;4.10;;;;;;;23.00;42.00;100634.92;1745876;82;21059;-62
2022/08/24 01:22:20;;;;;;;10.82;4.53;;;;;;;22.96;42.02;100638.53;1745662;82;21063;-63
2022/08/24 01:24:49;;;;;;;7.40;4.45;;;;;;;22.91;42.29;100640.75;1737783;81;21031;-64
2022/08/24 01:27:20;;;;;;;7.70;4.35;;;;;;;22.88;42.29;100642.70;1750813;81;21032;-64
2022/08/24 01:29:52;;;;;;;7.53;4.55;;;;;;;22.86;42.29;100639.89;1758626;81;21063;-62
2022/08/24 01:32:23;;;;;;;7.80;4.60;;;;;;;22.86;42.33;100638.50;1679089;85;21051;-62
2022/08/24 01:34:54;;;;;;;8.68;4.90;;;;;;;22.87;42.22;100637.37;1758480;81;21000;-62
2022/08/24 01:37:24;;;;;;;9.78;4.80;;;;;;;22.86;42.44;100639.89;1679062;85;21020;-63
2022/08/24 01:39:56;;;;;;;7.90;4.70;;;;;;;22.84;42.39;100649.11;1716394;81;21048;-63
2022/08/24 01:42:28;;;;;;;7.95;4.70;;;;;;;22.80;42.32;100651.60;1716255;83;21062;-62
2022/08/24 01:45:00;;;;;;;10.15;4.70;;;;;;;22.77;42.52;100648.77;1722350;81;21039;-62
2022/08/24 01:47:30;;;;;;;5.92;4.58;;;;;;;22.74;42.48;100647.05;1748807;82;21039;-62
2022/08/24 01:50:01;;;;;;;6.45;4.20;;;;;;;22.70;42.79;100659.88;1748639;82;21086;-62
2022/08/24 01:52:31;;;;;;;7.20;4.30;;;;;;;22.66;42.59;100661.53;1722550;82;21063;-63
2022/08/24 01:55:09;;;;;;;7.20;5.30;;;;;;;22.62;43.05;100661.23;1718569;82;21444;-62
2022/08/24 01:57:40;;;;;;;9.45;5.62;;;;;;;22.59;42.72;100665.13;1723713;82;21078;-63
2022/08/24 02:00:13;;;;;;;8.18;5.12;;;;;;;22.56;42.69;100659.52;1727844;81;21511;-64
2022/08/24 02:02:42;;;;;;;9.33;4.97;;;;;;;22.52;43.37;100660.34;1679005;85;21072;-62
2022/08/24 02:05:13;;;;;;;12.07;5.83;;;;;;;22.45;43.55;100662.81;1717023;81;21070;-62
2022/08/24 02:07:45;;;;;;;10.45;5.12;;;;;;;22.40;43.90;100668.92;1725078;82;21073;-62
2022/08/24 02:10:15;;;;;;;6.83;4.90;;;;;;;22.36;43.64;100667.23;1746839;82;20975;-62
2022/08/24 02:12:56;;;;;;;9.78;5.00;;;;;;;22.34;43.05;100670.00;1711107;84;21140;-62
2022/08/24 02:15:19;;;;;;;9.35;5.08;;;;;;;22.33;43.28;100668.31;1710130;84;21517;-63
2022/08/24 02:17:50;;;;;;;6.53;4.83;;;;;;;22.30;43.86;100666.06;1682639;85;21065;-61
2022/08/24 02:20:20;;;;;;;6.08;4.15;;;;;;;22.26;43.93;100671.34;1690837;85;21011;-63
2022/08/24 02:22:51;;;;;;;8.48;4.97;;;;;;;22.23;43.65;100664.06;1690593;85;21477;-62
2022/08/24 02:25:22;;;;;;;8.53;5.20;;;;;;;22.19;44.22;100663.76;1690003;85;21564;-61
2022/08/24 02:27:53;;;;;;;8.43;4.85;;;;;;;22.16;44.63;100667.64;1690833;85;21716;-62
2022/08/24 02:30:23;;;;;;;11.33;5.00;;;;;;;22.10;44.01;100668.13;1690574;84;21047;-61
2022/08/24 02:32:53;;;;;;;13.05;5.70;;;;;;;22.05;44.18;100657.77;1690767;85;21506;-61
2022/08/24 02:35:24;;;;;;;7.47;4.83;;;;;;;22.03;44.03;100659.14;1690724;85;21459;-62
2022/08/24 02:37:54;;;;;;;9.50;4.65;;;;;;;22.00;43.78;100654.06;1690824;85;21086;-61
2022/08/24 02:40:24;;;;;;;9.33;4.80;;;;;;;21.99;43.29;100663.54;1690831;85;21495;-63
2022/08/24 02:42:54;;;;;;;7.95;4.40;;;;;;;21.99;43.34;100660.75;1690500;85;21098;-63
2022/08/24 02:45:24;;;;;;;9.38;4.65;;;;;;;22.01;43.02;100658.53;1690824;85;21071;-61
2022/08/24 02:47:54;;;;;;;8.08;4.40;;;;;;;22.01;42.85;100659.38;1690598;85;21046;-62
2022/08/24 02:50:29;;;;;;;10.40;4.55;;;;;;;22.02;42.86;100658.27;1690736;85;21485;-63
2022/08/24 02:52:57;;;;;;;7.35;4.65;;;;;;;22.02;42.71;100659.66;1690687;84;21032;-62
2022/08/24 02:55:27;;;;;;;9.68;4.58;;;;;;;22.00;42.86;100667.45;1690692;85;21067;-62
2022/08/24 02:57:57;;;;;;;8.05;4.75;;;;;;;21.99;42.48;100664.94;1690636;85;21051;-63
2022/08/24 03:00:26;;;;;;;11.33;4.60;;;;;;;22.00;42.68;100668.85;1690522;84;21470;-63
2022/08/24 03:02:57;;;;;;;8.20;4.65;;;;;;;22.01;42.82;100665.51;1690783;85;21031;-62
2022/08/24 03:05:27;;;;;;;9.83;4.42;;;;;;;21.98;42.69;100670.23;1690764;85;21055;-63
2022/08/24 03:07:56;;;;;;;10.25;4.30;;;;;;;21.94;42.87;100677.45;1697642;84;21047;-62
2022/08/24 03:10:27;;;;;;;7.55;4.33;;;;;;;21.89;42.67;100677.41;1680076;84;21489;-62
2022/08/24 03:12:58;;;;;;;9.65;4.53;;;;;;;21.87;42.98;100683.80;1761364;81;21055;-62
2022/08/24 03:15:28;;;;;;;11.43;4.70;;;;;;;21.86;43.29;100683.52;1730658;81;21043;-61
2022/08/24 03:17:58;;;;;;;8.80;4.47;;;;;;;21.82;42.94;100686.84;1682488;85;21081;-63
2022/08/24 03:20:29;;;;;;;7.92;4.33;;;;;;;21.81;43.46;100685.16;1682496;85;21051;-63
2022/08/24 03:22:58;;;;;;;8.95;4.28;;;;;;;21.79;43.02;100688.77;1680907;85;21528;-62
2022/08/24 03:25:29;;;;;;;5.37;4.22;;;;;;;21.76;42.27;100685.11;1654364;85;21073;-61
2022/08/24 03:27:59;;;;;;;9.75;3.80;;;;;;;21.76;42.62;100687.05;1702085;84;21522;-62
2022/08/24 03:30:30;;;;;;;6.42;4.10;;;;;;;21.75;42.20;100684.82;1744217;81;21027;-62
2022/08/24 03:33:04;;;;;;;10.08;3.90;;;;;;;21.77;42.12;100679.82;1761400;81;21464;-63
2022/08/24 03:35:33;;;;;;;7.35;3.70;;;;;;;21.80;41.83;100684.87;1761448;81;21051;-62
2022/08/24 03:38:03;;;;;;;8.85;4.28;;;;;;;21.82;42.05;100682.66;1681658;85;21526;-64
2022/08/24 03:40:34;;;;;;;7.12;4.05;;;;;;;21.82;42.35;100688.23;1761582;81;21012;-63
2022/08/24 03:43:04;;;;;;;6.83;3.60;;;;;;;21.80;42.05;100695.19;1761791;81;21373;-62
2022/08/24 03:45:34;;;;;;;7.47;3.72;;;;;;;21.77;42.32;100695.16;1676045;84;21107;-63
2022/08/24 03:48:05;;;;;;;5.75;3.72;;;;;;;21.76;41.77;100694.87;1731420;83;21044;-61
2022/08/24 03:50:36;;;;;;;6.08;3.52;;;;;;;21.77;41.65;100696.56;1720200;81;21067;-62
2022/08/24 03:53:06;;;;;;;8.23;3.60;;;;;;;;;;1719115;83;20996;-62
2022/08/24 03:55:36;;;;;;;7.55;3.95;;;;;;;;;;1719134;83;21025;-62
2022/08/24 03:58:04;;;;;;;10.28;3.85;;;;;;;;;;1719394;81;21560;-62
2022/08/24 04:00:36;;;;;;;6.15;3.50;;;;;;;21.79;41.91;100706.89;1728502;81;21011;-63
2022/08/24 04:03:06;;;;;;;10.30;3.58;;;;;;;21.80;41.54;100703.00;1761320;81;21020;-63
2022/08/24 04:05:38;;;;;;;6.40;3.60;;;;;;;21.80;41.25;100711.37;1760816;81;21451;-64
2022/08/24 04:08:08;;;;;;;6.83;3.40;;;;;;;21.81;41.13;100703.84;1679198;84;21053;-63
2022/08/24 04:10:40;;;;;;;8.00;3.87;;;;;;;21.82;40.96;100702.18;1709622;81;21061;-65
2022/08/24 04:13:09;;;;;;;7.58;3.50;;;;;;;21.82;40.72;100707.77;1686111;81;21088;-63
2022/08/24 04:15:42;;;;;;;10.05;3.40;;;;;;;21.81;40.38;100701.89;1732545;82;21522;-62
2022/08/24 04:18:12;;;;;;;7.15;3.70;;;;;;;21.83;40.63;100703.87;1736135;83;21510;-62
2022/08/24 04:20:44;;;;;;;6.05;3.65;;;;;;;21.86;40.67;100702.49;1736250;83;21055;-62
2022/08/24 04:23:16;;;;;;;9.38;3.45;;;;;;;21.88;40.56;100695.25;1736104;82;21020;-62
2022/08/24 04:25:47;;;;;;;7.90;3.67;;;;;;;21.89;40.61;100700.57;1736127;83;21024;-62
2022/08/24 04:28:18;;;;;;;8.28;3.67;;;;;;;21.90;40.49;100694.44;1735783;82;21036;-62
2022/08/24 04:30:51;;;;;;;7.40;3.47;;;;;;;21.90;40.55;100697.22;1735496;81;21069;-61
2022/08/24 04:33:26;;;;;;;4.25;3.15;;;;;;;21.91;40.36;100701.70;1734819;81;21011;-61
2022/08/24 04:35:56;;;;;;;7.90;3.37;;;;;;;21.88;40.35;100697.48;1736275;83;21032;-62
2022/08/24 04:38:27;;;;;;;6.60;3.52;;;;;;;21.90;40.56;100701.41;1736002;82;21016;-63
2022/08/24 04:41:09;;;;;;;4.87;3.70;;;;;;;21.91;40.71;100708.67;1736158;82;21008;-62
2022/08/24 04:43:44;;;;;;;12.18;3.75;;;;;;;21.93;40.47;100703.12;1753453;81;21432;-63
2022/08/24 04:46:17;;;;;;;6.83;3.70;;;;;;;21.93;40.43;100703.67;1684696;85;21076;-63
2022/08/24 04:48:48;;;;;;;9.88;4.10;;;;;;;21.95;40.34;100701.45;1688894;84;21069;-63
2022/08/24 04:51:18;;;;;;;6.67;3.92;;;;;;;21.98;40.22;100700.92;1683162;85;21074;-63
2022/08/24 04:53:49;;;;;;;6.40;3.90;;;;;;;21.99;40.32;100696.47;1656408;85;21104;-63
2022/08/24 04:56:24;;;;;;;9.35;3.77;;;;;;;22.02;40.17;100700.67;1660266;85;21518;-63
2022/08/24 04:58:56;;;;;;;;;;;;;;;22.04;40.09;100697.09;1687368;85;21027;-62
2022/08/24 05:01:28;;;;;;;7.53;3.65;;;;;;;22.06;40.12;100694.33;1712942;84;20198;-62
2022/08/24 05:03:59;;;;;;;10.48;4.00;;;;;;;22.08;40.03;100698.25;1709012;84;21063;-63
2022/08/24 05:06:31;;;;;;;7.85;3.58;;;;;;;22.12;40.18;100700.83;1684775;84;21504;-62
2022/08/24 05:09:01;;;;;;;8.55;4.12;;;;;;;22.13;39.72;100686.61;1705166;84;21043;-63
2022/08/24 05:11:32;;;;;;;9.48;3.80;;;;;;;22.14;39.71;100687.45;1679671;84;21211;-62
2022/08/24 05:14:02;;;;;;;7.75;3.50;;;;;;;22.18;39.85;100689.15;1745422;82;20995;-61
2022/08/24 05:16:33;;;;;;;7.15;3.58;;;;;;;22.20;39.96;100684.98;1745823;82;21019;-62
2022/08/24 05:19:05;;;;;;;12.82;3.87;;;;;;;22.22;39.66;100691.14;1745513;82;20991;-63
2022/08/24 05:21:35;;;;;;;6.62;3.42;;;;;;;22.26;39.67;100692.84;1745590;82;20991;-63
2022/08/24 05:24:04;;;;;;;8.70;3.80;;;;;;;22.30;39.44;100693.42;1756038;81;21039;-64
2022/08/24 05:26:34;;;;;;;6.95;3.75;;;;;;;22.33;39.51;100692.89;1679105;85;21440;-62
2022/08/24 05:29:05;;;;;;;8.75;3.58;;;;;;;22.37;39.42;100695.98;1758354;81;21047;-62
2022/08/24 05:31:36;;;;;;;7.47;3.65;;;;;;;22.40;39.44;100693.50;1679324;84;21463;-63
2022/08/24 05:34:09;;;;;;;6.03;3.45;;;;;;;22.46;39.50;100699.95;1758477;81;21012;-63
2022/08/24 05:36:40;;;;;;;9.50;3.80;;;;;;;22.50;39.35;100689.93;1678193;85;21454;-62
2022/08/24 05:39:13;;;;;;;8.55;3.92;;;;;;;22.54;39.35;100691.63;1758177;81;21036;-64
2022/08/24 05:41:45;;;;;;;8.30;3.87;;;;;;;22.56;39.30;100690.80;1679148;85;21055;-62
2022/08/24 05:44:17;;;;;;;10.32;3.67;;;;;;;22.57;39.42;100688.30;1722383;81;21007;-62
2022/08/24 05:46:48;;;;;;;7.40;3.67;;;;;;;22.58;38.85;100685.23;1716119;83;21078;-63
2022/08/24 05:49:18;;;;;;;6.30;3.52;;;;;;;22.60;38.84;100690.55;1716820;82;21070;-62
2022/08/24 05:51:48;;;;;;;7.45;3.77;;;;;;;22.64;38.87;100680.52;1716276;83;21439;-62
2022/08/24 05:54:17;;;;;;;7.17;4.10;;;;;;;22.68;38.83;100685.84;1716037;83;21463;-62
2022/08/24 05:56:53;;;;;;;6.30;3.47;;;;;;;22.72;39.13;100689.78;1715131;83;21059;-63
2022/08/24 05:59:24;;;;;;;11.90;3.67;;;;;;;22.76;38.83;100690.95;1716317;81;21075;-62
2022/08/24 06:01:53;;;;;;;9.48;3.77;;;;;;;22.79;38.83;100693.20;1684125;85;21072;-63
2022/08/24 06:04:23;;;;;;;8.43;4.17;;;;;;;22.84;38.82;100692.42;1736552;81;21051;-63
2022/08/24 06:06:54;;;;;;;7.25;4.08;;;;;;;22.88;39.13;100694.95;1758420;81;21022;-65
2022/08/24 06:09:24;;;;;;;9.23;4.40;;;;;;;22.91;38.69;100700.84;1678908;85;21020;-63
2022/08/24 06:11:54;;;;;;;9.78;4.85;;;;;;;22.96;38.57;100700.02;1755504;81;21067;-63
2022/08/24 06:14:25;;;;;;;9.15;3.92;;;;;;;23.01;38.92;100695.30;1758433;81;21008;-63
2022/08/24 06:16:58;;;;;;;8.50;3.58;;;;;;;23.02;38.26;100698.37;1678963;85;21052;-63
2022/08/24 06:19:28;;;;;;;9.13;3.60;;;;;;;23.05;38.15;100695.59;1758460;81;21075;-63
2022/08/24 06:21:59;;;;;;;31.35;22.52;;;;;;;23.09;38.16;100697.56;1679034;85;21024;-63
2022/08/24 06:27:22;;;;;;;8.08;4.42;;;;;;;23.17;38.06;100698.14;1744948;81;21063;-64
2022/08/24 06:29:59;;;;;;;10.10;4.53;;;;;;;23.23;38.15;100709.07;1679072;85;21040;-63
2022/08/24 06:32:48;;;;;;;6.58;4.08;;;;;;;23.30;38.07;100704.63;1758442;81;20984;-63
2022/08/24 06:35:21;;;;;;;7.55;3.92;;;;;;;23.37;37.93;100708.00;1679590;84;21063;-63
2022/08/24 06:37:52;;;;;;;10.55;3.83;;;;;;;23.42;37.86;100708.60;1758752;81;21012;-62
2022/08/24 06:40:23;;;;;;;9.08;3.72;;;;;;;23.44;37.59;100707.21;1753894;81;21023;-63
2022/08/24 06:42:53;;;;;;;10.48;4.62;;;;;;;23.47;37.62;100704.42;1745524;82;21065;-62
2022/08/24 06:45:25;;;;;;;9.18;3.45;;;;;;;23.51;37.92;100707.79;1745766;82;21047;-64
2022/08/24 06:47:55;;;;;;;7.90;3.90;;;;;;;23.57;37.98;100713.70;1749672;81;21042;-62
2022/08/24 06:50:25;;;;;;;7.20;4.25;;;;;;;23.66;37.74;100719.60;1748532;82;20991;-63
2022/08/24 06:52:57;;;;;;;8.35;4.10;;;;;;;23.71;37.65;100721.85;1748766;82;21254;-64
2022/08/24 06:55:28;;;;;;;10.20;4.12;;;;;;;23.78;37.72;100726.34;1721844;82;21022;-64
2022/08/24 06:57:58;;;;;;;7.70;3.95;;;;;;;23.84;37.63;100719.63;1748544;82;21095;-63
2022/08/24 07:00:29;;;;;;;8.08;3.92;;;;;;;23.92;38.59;100722.72;1748547;82;21054;-64
2022/08/24 07:03:00;;;;;;;16.50;4.20;;;;;;;24.15;38.64;100722.76;1719674;82;21066;-64
2022/08/24 07:05:31;;;;;;;8.53;4.53;;;;;;;24.50;37.67;100727.52;1719936;81;21044;-63
2022/08/24 07:08:03;;;;;;;6.53;3.80;;;;;;;24.98;36.74;100728.59;1758518;81;21087;-64
2022/08/24 07:10:33;;;;;;;10.25;3.72;;;;;;;25.49;36.29;100725.03;1758291;81;21007;-62
2022/08/24 07:13:03;;;;;;;8.95;4.17;;;;;;;26.01;35.04;100723.59;1681984;84;21055;-64
2022/08/24 07:15:34;;;;;;;6.65;3.85;;;;;;;26.46;34.45;100726.63;1756810;81;21053;-63
2022/08/24 07:18:08;;;;;;;13.43;4.70;;;;;;;26.93;34.21;100726.45;1730594;83;21056;-63
2022/08/24 07:20:41;;;;;;;8.68;3.95;;;;;;;27.74;33.20;100722.64;1731223;83;21059;-65
2022/08/24 07:23:13;;;;;;;8.15;3.92;;;;;;;27.74;33.20;100722.64;1728925;83;21413;-64
2022/08/24 07:25:45;;;;;;;12.63;4.75;;;;;;;28.07;32.55;100734.27;1725561;81;21083;-64
2022/08/24 07:28:16;;;;;;;10.72;4.25;;;;;;;28.46;31.51;100736.46;1682512;85;21038;-64
2022/08/24 07:30:48;;;;;;;9.33;4.22;;;;;;;28.85;30.60;100733.25;1679917;84;21038;-64
2022/08/24 07:33:20;;;;;;;8.73;4.12;;;;;;;29.10;30.23;100724.28;1731172;83;21081;-65
2022/08/24 07:35:49;;;;;;;8.60;4.35;;;;;;;29.38;29.80;100722.88;1731186;83;21079;-65
2022/08/24 07:38:20;;;;;;;7.50;4.05;;;;;;;29.57;29.36;100724.44;1731275;83;21016;-64
2022/08/24 07:40:51;;;;;;;14.40;4.35;;;;;;;29.80;29.29;100728.72;1717137;83;21042;-64
2022/08/24 07:43:23;;;;;;;11.20;4.33;;;;;;;30.00;28.95;100727.43;1726795;83;21051;-64
2022/08/24 07:45:53;;;;;;;9.33;4.00;;;;;;;30.20;28.56;100734.86;1755895;81;21016;-66
2022/08/24 07:48:23;;;;;;;14.80;5.42;;;;;;;30.45;27.92;100737.61;1761183;81;21439;-65
2022/08/24 07:50:53;;;;;;;10.55;4.85;;;;;;;30.50;28.00;100727.58;1722202;83;21215;-64
2022/08/24 07:53:24;;;;;;;13.78;4.65;;;;;;;30.53;28.09;100726.93;1731314;82;21456;-64
2022/08/24 07:55:55;;;;;;;10.43;4.55;;;;;;;30.64;27.55;100726.72;1737421;81;21448;-65
2022/08/24 07:58:25;;;;;;;13.28;4.58;;;;;;;30.77;27.46;100720.12;1661796;85;21083;-64
2022/08/24 08:00:56;;;;;;;14.00;4.37;;;;;;;30.86;27.52;100721.00;1755643;81;21078;-64
2022/08/24 08:03:28;;;;;;;21.30;5.10;;;;;;;30.89;27.30;100716.11;1752805;81;21447;-63
2022/08/24 08:06:03;;;;;;;24.82;5.22;;;;;;;30.97;27.91;100722.97;1719490;81;21082;-64
2022/08/24 08:08:38;;;;;;;25.32;5.35;;;;;;;31.08;26.37;100720.09;1724456;81;21141;-64
2022/08/24 08:11:10;;;;;;;17.70;4.72;;;;;;;31.20;26.54;100714.09;1672953;84;21127;-64
2022/08/24 08:13:43;;;;;;;14.15;4.65;;;;;;;31.64;25.75;100729.20;1744737;82;21011;-61
2022/08/24 08:16:13;;;;;;;17.23;4.53;;;;;;;31.87;25.67;100722.88;1745541;82;21063;-63
2022/08/24 08:18:43;;;;;;;20.80;5.85;;;;;;;32.18;25.00;100725.53;1745387;82;21039;-63
2022/08/24 08:26:36;;;;;;;19.57;5.05;;;;;;;32.52;24.44;100727.53;1756704;81;21024;-65
2022/08/24 08:29:14;;;;;;;20.15;5.40;;;;;;;32.59;24.56;100727.02;1678788;84;21044;-64
2022/08/24 08:31:43;;;;;;;17.87;4.75;;;;;;;32.64;24.02;100728.26;1755328;81;21051;-64
2022/08/24 08:34:12;;;;;;;16.42;4.47;;;;;;;32.68;24.36;100724.98;1672989;85;21105;-63
2022/08/24 08:36:43;;;;;;;12.00;4.40;;;;;;;32.79;24.04;100726.31;1650301;87;21052;-65
2022/08/24 08:39:15;;;;;;;17.30;4.78;;;;;;;32.81;23.75;100725.98;1716231;81;21046;-64
2022/08/24 08:42:04;;;;;;;16.90;5.30;;;;;;;32.85;24.05;100729.22;1716027;83;21043;-65
2022/08/24 08:44:47;;;;;;;13.53;4.60;;;;;;;33.00;23.92;100733.50;1716017;83;21106;-63
2022/08/24 08:47:42;;;;;;;18.65;5.37;;;;;;;33.05;24.24;100725.63;1678878;85;21040;-62
2022/08/24 08:50:20;;;;;;;12.85;4.45;;;;;;;32.98;23.87;100728.16;1716172;83;21031;-64
2022/08/24 08:53:20;;;;;;;11.63;4.25;;;;;;;32.96;23.87;100732.52;1744529;81;21078;-64
2022/08/24 08:56:17;;;;;;;17.48;4.55;;;;;;;32.95;23.51;100725.17;1748781;82;21054;-62
2022/08/24 08:59:16;;;;;;;18.20;4.90;;;;;;;32.91;23.73;100727.86;1748952;82;21031;-63
2022/08/24 09:02:10;;;;;;;12.13;4.30;;;;;;;32.87;23.76;100717.52;1746004;81;21012;-63
2022/08/24 09:05:23;;;;;;;21.10;5.25;;;;;;;32.79;23.91;100714.97;1670288;84;21069;-65
2022/08/24 09:08:20;;;;;;;13.48;4.53;;;;;;;32.81;23.98;100723.98;1672933;84;21096;-64
2022/08/24 09:11:21;;;;;;;17.65;4.20;;;;;;;32.80;23.62;100715.21;1684411;84;21111;-63
2022/08/24 09:14:30;;;;;;;12.28;3.70;;;;;;;32.73;23.66;100719.13;1679446;85;21000;-63
2022/08/24 09:17:18;;;;;;;10.38;4.03;;;;;;;32.69;23.45;100712.47;1716097;82;21068;-64
2022/08/24 09:20:12;;;;;;;;;;;;;;;32.55;23.30;100709.00;1748523;82;21055;-63
2022/08/24 09:22:46;;;;;;;13.62;3.77;;;;;;;32.45;23.71;100718.09;1745603;82;20157;-64
2022/08/24 09:25:40;;;;;;;10.55;4.30;;;;;;;32.41;23.70;100717.69;1748968;81;21000;-65
2022/08/24 09:28:44;;;;;;;11.95;3.67;;;;;;;32.33;23.68;100715.11;1685908;84;21036;-65
2022/08/24 09:31:44;;;;;;;12.75;3.70;;;;;;;32.25;23.70;100713.12;1669561;85;21042;-65
2022/08/24 09:35:00;;;;;;;11.85;3.75;;;;;;;32.15;23.66;100705.77;1710279;83;21106;-64
2022/08/24 09:37:46;;;;;;;13.62;3.98;;;;;;;32.08;23.77;100713.95;1716450;83;21030;-63
2022/08/24 09:40:52;;;;;;;17.20;3.98;;;;;;;32.02;23.57;100707.36;1716149;83;21042;-64
2022/08/24 09:43:55;;;;;;;11.03;3.60;;;;;;;32.00;23.76;100711.11;1716099;83;21029;-63
2022/08/24 09:46:52;;;;;;;16.35;3.80;;;;;;;32.03;23.53;100709.86;1716269;83;21071;-63
2022/08/24 09:50:02;;;;;;;9.58;3.60;;;;;;;32.03;23.39;100704.19;1715986;83;21070;-63
2022/08/24 09:53:07;;;;;;;9.58;3.22;;;;;;;31.95;23.77;100703.61;1735889;81;21039;-65
2022/08/24 09:56:18;;;;;;;12.05;3.98;;;;;;;31.91;24.14;100707.45;1753567;81;21055;-64
2022/08/24 09:59:07;;;;;;;15.68;3.77;;;;;;;31.88;24.19;100701.03;1745697;82;21047;-64
2022/08/24 10:02:04;;;;;;;8.93;3.65;;;;;;;31.85;24.33;100701.08;1746720;81;20987;-63
2022/08/24 10:04:57;;;;;;;12.90;3.77;;;;;;;31.83;24.38;100707.08;1722437;82;21070;-65
2022/08/24 10:07:55;;;;;;;10.48;3.70;;;;;;;31.81;24.29;100697.25;1748593;81;21070;-65
2022/08/24 10:10:27;;;;;;;;;;;;;;;31.80;24.30;100696.41;1670150;85;21040;-65
2022/08/24 10:13:23;;;;;;;10.43;3.37;;;;;;;31.77;24.46;100691.41;1679179;85;20165;-65
2022/08/24 10:16:25;;;;;;;10.95;3.52;;;;;;;31.77;24.52;100691.41;1745550;82;21012;-65
2022/08/24 10:19:27;;;;;;;15.25;3.80;;;;;;;31.78;24.50;100701.58;1700791;82;20995;-63
2022/08/24 10:22:18;;;;;;;11.28;3.30;;;;;;;31.79;24.56;100699.00;1745668;82;21019;-63
2022/08/24 10:25:02;;;;;;;11.08;2.95;;;;;;;31.80;24.33;100699.25;1753572;81;21493;-64
2022/08/24 10:27:55;;;;;;;8.20;3.08;;;;;;;31.79;23.95;100687.66;1735083;81;21020;-64
2022/08/24 10:30:37;;;;;;;11.97;3.15;;;;;;;31.75;23.99;100687.25;1678562;85;21103;-63
2022/08/24 10:33:27;;;;;;;11.33;2.80;;;;;;;31.71;24.22;100697.58;1656609;84;21063;-64
2022/08/24 10:36:23;;;;;;;8.55;2.98;;;;;;;31.71;23.97;100696.99;1758427;81;20992;-64
2022/08/24 10:41:59;;;;;;;;;;;;;;;31.61;24.04;100688.79;1753436;81;21016;-64
2022/08/24 10:44:48;;;;;;;11.60;3.52;;;;;;;31.58;24.68;100691.45;1730811;82;20509;-62
2022/08/24 10:47:29;;;;;;;11.35;3.22;;;;;;;31.53;24.52;100691.03;1745515;82;21024;-63
2022/08/24 10:50:30;;;;;;;12.50;3.50;;;;;;;31.50;24.54;100697.36;1730049;82;20983;-65
2022/08/24 10:53:20;;;;;;;15.58;3.22;;;;;;;31.53;24.73;100695.28;1745653;82;21027;-64
2022/08/24 10:56:06;;;;;;;14.07;3.75;;;;;;;31.64;24.48;100688.70;1751215;81;21069;-65
2022/08/24 10:58:51;;;;;;;;;;;;;;;31.66;24.57;100687.20;1760328;81;21012;-64
2022/08/24 11:01:27;;;;;;;11.78;3.40;;;;;;;31.61;24.65;100685.95;1758493;81;20208;-66
2022/08/24 11:04:13;;;;;;;11.50;3.10;;;;;;;31.60;24.79;100685.70;1716063;82;21020;-64
2022/08/24 11:07:06;;;;;;;13.45;3.15;;;;;;;31.58;24.98;100685.20;1716215;83;21024;-63
2022/08/24 11:09:54;;;;;;;12.53;3.50;;;;;;;31.57;25.17;100677.03;1716904;81;21094;-64
2022/08/24 11:12:29;;;;;;;8.65;2.70;;;;;;;31.54;25.43;100676.53;1647965;86;21075;-63
2022/08/24 11:15:01;;;;;;;9.90;3.22;;;;;;;31.57;25.70;100682.12;1740944;82;21143;-64
2022/08/24 11:17:33;;;;;;;14.68;3.62;;;;;;;31.58;25.44;100683.78;1745663;82;21047;-65
2022/08/24 11:20:05;;;;;;;8.30;3.62;;;;;;;31.61;25.61;100670.95;1745790;82;21514;-63
2022/08/24 11:22:39;;;;;;;11.03;3.60;;;;;;;31.63;25.38;100666.63;1720078;82;21058;-64
2022/08/24 11:25:18;;;;;;;8.57;3.40;;;;;;;31.60;25.48;100676.38;1746238;82;21066;-64
2022/08/24 11:27:50;;;;;;;12.23;3.20;;;;;;;31.58;25.41;100666.79;1745719;82;21034;-64
2022/08/24 11:30:24;;;;;;;10.55;3.30;;;;;;;31.62;25.34;100664.13;1748122;81;21054;-64
2022/08/24 11:32:57;;;;;;;15.15;3.50;;;;;;;31.61;25.52;100660.45;1747916;82;21039;-65
2022/08/24 11:35:36;;;;;;;13.05;3.58;;;;;;;31.63;25.66;100655.30;1745590;82;21027;-64
2022/08/24 11:38:15;;;;;;;16.23;3.70;;;;;;;31.64;25.56;100662.62;1745840;82;20988;-65
2022/08/24 11:41:13;;;;;;;12.37;3.47;;;;;;;31.68;25.45;100663.63;1746063;82;21011;-64
2022/08/24 11:44:06;;;;;;;10.35;3.42;;;;;;;31.71;24.92;100660.16;1752349;81;21114;-64
2022/08/24 11:46:45;;;;;;;14.07;3.42;;;;;;;31.74;25.02;100663.74;1758278;81;21522;-66
2022/08/24 11:49:23;;;;;;;10.25;3.70;;;;;;;31.68;24.90;100653.70;1758702;81;21059;-63
2022/08/24 11:52:04;;;;;;;9.58;3.37;;;;;;;31.60;25.22;100654.54;1715933;83;21007;-65
2022/08/24 11:55:10;;;;;;;20.00;3.45;;;;;;;31.56;25.49;100649.88;1715266;83;21032;-66
2022/08/24 11:58:02;;;;;;;14.07;3.85;;;;;;;31.54;25.34;100657.29;1722443;82;21137;-64
2022/08/24 12:00:51;;;;;;;10.20;3.47;;;;;;;31.52;25.41;100653.95;1745491;82;21030;-64
2022/08/24 12:03:48;;;;;;;9.93;2.90;;;;;;;31.48;25.31;100655.78;1745684;82;21059;-63
2022/08/24 12:06:55;;;;;;;10.08;3.27;;;;;;;31.41;25.26;100656.28;1745769;82;21099;-64
2022/08/24 12:09:45;;;;;;;10.98;3.00;;;;;;;31.38;25.46;100650.44;1745495;82;21459;-64
2022/08/24 12:12:42;;;;;;;12.70;3.47;;;;;;;31.40;25.38;100647.53;1718040;83;20995;-63
2022/08/24 12:15:27;;;;;;;10.65;3.00;;;;;;;31.46;25.46;100661.78;1718723;83;21170;-65
2022/08/24 12:18:33;;;;;;;9.33;3.27;;;;;;;31.57;25.39;100640.20;1707713;83;21039;-63
2022/08/24 12:21:03;;;;;;;5.53;2.80;;;;;;;31.55;25.27;100646.20;1702326;83;21019;-62